createdAt,value
2022-09-03T00:01:40.721Z,12.20
2022-09-03T00:04:21.355Z,12.20
2022-09-03T00:07:01.805Z,12.20
2022-09-03T00:09:34.086Z,12.30
2022-09-03T00:12:09.897Z,12.30
2022-09-03T00:14:43.810Z,12.40
2022-09-03T00:17:16.492Z,12.50
2022-09-03T00:19:55.016Z,12.50
2022-09-03T00:22:29.821Z,12.50
2022-09-03T00:25:04.623Z,12.50
2022-09-03T00:27:41.397Z,12.60
2022-09-03T00:30:14.603Z,12.60
2022-09-03T00:32:49.262Z,12.60
2022-09-03T00:35:26.182Z,12.60
2022-09-03T00:37:55.971Z,12.70
2022-09-03T00:40:57.085Z,12.70
2022-09-03T00:43:36.334Z,12.70
2022-09-03T00:46:13.949Z,12.80
2022-09-03T00:49:01.996Z,12.80
2022-09-03T00:51:43.364Z,12.80
2022-09-03T00:54:18.196Z,12.80
2022-09-03T00:56:52.264Z,12.80
2022-09-03T00:59:31.373Z,12.80
2022-09-03T01:02:12.688Z,12.80
2022-09-03T01:04:59.394Z,12.80
2022-09-03T01:07:43.860Z,12.80
2022-09-03T01:10:26.124Z,12.80
2022-09-03T01:13:01.177Z,12.80
2022-09-03T01:15:35.642Z,12.80
2022-09-03T01:18:17.444Z,12.80
2022-09-03T01:20:55.121Z,12.80
2022-09-03T01:23:44.753Z,12.80
2022-09-03T01:26:29.899Z,12.80
2022-09-03T01:29:12.417Z,12.80
2022-09-03T01:31:50.979Z,12.90
2022-09-03T01:34:32.986Z,12.90
2022-09-03T01:37:13.018Z,12.90
2022-09-03T01:39:56.965Z,12.90
2022-09-03T01:42:33.399Z,12.90
2022-09-03T01:45:21.569Z,12.90
2022-09-03T01:48:02.735Z,12.90
2022-09-03T01:50:41.325Z,12.90
2022-09-03T01:53:29.089Z,12.90
2022-09-03T01:56:13.338Z,12.90
2022-09-03T01:58:45.434Z,12.90
2022-09-03T02:01:21.365Z,12.90
2022-09-03T02:03:49.943Z,12.80
2022-09-03T02:06:20.621Z,12.80
2022-09-03T02:08:48.654Z,12.80
2022-09-03T02:11:17.067Z,12.80
2022-09-03T02:13:49.277Z,12.70
2022-09-03T02:16:24.325Z,12.70
2022-09-03T02:18:57.129Z,12.70
2022-09-03T02:21:30.814Z,12.60
2022-09-03T02:24:02.090Z,12.60
2022-09-03T02:26:30.226Z,12.50
2022-09-03T02:28:59.303Z,12.50
2022-09-03T02:31:28.997Z,12.40
2022-09-03T02:33:58.988Z,12.40
2022-09-03T02:36:33.228Z,12.40
2022-09-03T02:39:04.327Z,12.30
2022-09-03T02:41:33.069Z,12.30
2022-09-03T02:44:05.707Z,12.20
2022-09-03T02:46:40.377Z,12.20
2022-09-03T02:49:09.362Z,12.20
2022-09-03T02:51:40.427Z,12.20
2022-09-03T02:54:12.326Z,12.10
2022-09-03T02:56:44.302Z,12.10
2022-09-03T02:59:12.352Z,12.10
2022-09-03T03:01:41.974Z,12.10
2022-09-03T03:04:17.714Z,12.10
2022-09-03T03:06:51.125Z,12.00
2022-09-03T03:09:19.437Z,12.00
2022-09-03T03:11:50.023Z,11.90
2022-09-03T03:14:18.587Z,11.90
2022-09-03T03:16:48.033Z,11.90
2022-09-03T03:19:16.487Z,11.80
2022-09-03T03:21:44.613Z,11.80
2022-09-03T03:24:12.847Z,11.80
2022-09-03T03:26:44.064Z,11.70
2022-09-03T03:29:21.013Z,11.70
2022-09-03T03:31:51.140Z,11.70
2022-09-03T03:34:19.147Z,11.70
2022-09-03T03:36:48.363Z,11.80
2022-09-03T03:39:16.749Z,11.70
2022-09-03T03:41:44.962Z,11.70
2022-09-03T03:44:14.090Z,11.70
2022-09-03T03:46:43.422Z,11.70
2022-09-03T03:49:16.321Z,11.70
2022-09-03T03:51:44.477Z,11.70
2022-09-03T03:54:12.924Z,11.60
2022-09-03T03:56:55.754Z,11.60
2022-09-03T03:59:24.129Z,11.60
2022-09-03T04:01:52.137Z,11.50
2022-09-03T04:04:22.132Z,11.50
2022-09-03T04:06:50.158Z,11.50
2022-09-03T04:09:18.170Z,11.40
2022-09-03T04:11:46.241Z,11.40
2022-09-03T04:14:14.264Z,11.40
2022-09-03T04:16:42.962Z,11.40
2022-09-03T04:19:11.649Z,11.40
2022-09-03T04:21:41.143Z,11.40
2022-09-03T04:24:09.225Z,11.40
2022-09-03T04:26:37.989Z,11.30
2022-09-03T04:29:08.897Z,11.30
2022-09-03T04:31:38.292Z,11.30
2022-09-03T04:34:06.680Z,11.20
2022-09-03T04:36:35.015Z,11.20
2022-09-03T04:39:06.908Z,11.20
2022-09-03T04:41:35.522Z,11.10
2022-09-03T04:44:07.882Z,11.10
2022-09-03T04:46:40.459Z,11.00
2022-09-03T04:49:12.006Z,11.00
2022-09-03T04:51:41.129Z,11.00
2022-09-03T04:54:11.208Z,11.00
2022-09-03T04:56:40.278Z,11.00
2022-09-03T04:59:10.239Z,11.00
2022-09-03T05:01:40.099Z,11.00
2022-09-03T05:04:09.844Z,11.00
2022-09-03T05:06:38.421Z,11.00
2022-09-03T05:09:07.653Z,11.00
2022-09-03T05:11:39.025Z,11.10
2022-09-03T05:14:12.736Z,11.20
2022-09-03T05:16:41.206Z,11.30
2022-09-03T05:19:10.719Z,11.30
2022-09-03T05:21:39.121Z,11.40
2022-09-03T05:24:07.341Z,11.50
2022-09-03T05:26:39.792Z,11.70
2022-09-03T05:29:09.118Z,11.80
2022-09-03T05:31:39.656Z,11.90
2022-09-03T05:34:08.072Z,12.10
2022-09-03T05:36:38.187Z,12.20
2022-09-03T05:39:07.340Z,12.30
2022-09-03T05:41:36.842Z,12.50
2022-09-03T05:44:08.780Z,12.50
2022-09-03T05:46:38.019Z,12.60
2022-09-03T05:49:07.807Z,12.60
2022-09-03T05:51:39.388Z,12.70
2022-09-03T05:54:16.669Z,12.80
2022-09-03T05:56:48.627Z,12.90
2022-09-03T05:59:17.498Z,12.90
2022-09-03T06:01:51.036Z,12.90
2022-09-03T06:04:20.979Z,13.00
2022-09-03T06:06:49.934Z,13.10
2022-09-03T06:09:20.706Z,13.30
2022-09-03T06:11:50.822Z,13.60
2022-09-03T06:14:21.770Z,13.90
2022-09-03T06:16:53.096Z,14.10
2022-09-03T06:19:21.832Z,14.30
2022-09-03T06:21:50.212Z,14.40
2022-09-03T06:24:22.719Z,14.50
2022-09-03T06:26:55.997Z,14.40
2022-09-03T06:29:24.572Z,14.50
2022-09-03T06:31:52.750Z,14.70
2022-09-03T06:34:25.575Z,14.80
2022-09-03T06:36:54.658Z,15.10
2022-09-03T06:39:29.935Z,15.10
2022-09-03T06:41:59.379Z,15.20
2022-09-03T06:44:27.622Z,15.30
2022-09-03T06:46:56.123Z,15.30
2022-09-03T06:49:26.209Z,15.20
2022-09-03T06:51:55.086Z,15.10
2022-09-03T06:54:25.681Z,15.10
2022-09-03T06:56:53.794Z,15.20
2022-09-03T06:59:23.247Z,15.30
2022-09-03T07:01:51.326Z,15.30
2022-09-03T07:04:20.683Z,15.20
2022-09-03T07:06:49.812Z,15.20
2022-09-03T07:09:20.471Z,15.20
2022-09-03T07:11:49.327Z,15.00
2022-09-03T07:14:18.730Z,14.90
2022-09-03T07:16:50.303Z,14.70
2022-09-03T07:19:18.941Z,14.80
2022-09-03T07:21:50.719Z,14.80
2022-09-03T07:24:22.366Z,14.80
2022-09-03T07:26:50.702Z,14.70
2022-09-03T07:29:20.637Z,14.80
2022-09-03T07:31:53.016Z,15.00
2022-09-03T07:34:24.251Z,15.00
2022-09-03T07:36:54.591Z,15.10
2022-09-03T07:39:22.667Z,15.40
2022-09-03T07:41:50.837Z,15.50
2022-09-03T07:44:20.463Z,15.50
2022-09-03T07:46:52.078Z,15.50
2022-09-03T07:49:23.176Z,15.60
2022-09-03T07:51:54.336Z,15.60
2022-09-03T07:54:23.897Z,15.50
2022-09-03T07:56:52.099Z,15.60
2022-09-03T07:59:21.329Z,15.60
2022-09-03T08:01:52.158Z,15.70
2022-09-03T08:04:21.579Z,15.90
2022-09-03T08:06:49.716Z,16.10
2022-09-03T08:09:17.894Z,16.30
2022-09-03T08:11:46.418Z,16.20
2022-09-03T08:14:16.729Z,16.00
2022-09-03T08:16:48.191Z,16.00
2022-09-03T08:19:19.242Z,16.00
2022-09-03T08:21:49.232Z,15.90
2022-09-03T08:24:21.252Z,15.80
2022-09-03T08:26:52.360Z,15.70
2022-09-03T08:29:21.523Z,15.60
2022-09-03T08:31:49.999Z,15.70
2022-09-03T08:34:19.566Z,15.80
2022-09-03T08:36:50.904Z,15.80
2022-09-03T08:39:23.308Z,15.80
2022-09-03T08:42:21.144Z,15.80
2022-09-03T08:44:58.873Z,16.00
2022-09-03T08:47:34.360Z,16.10
2022-09-03T08:50:09.103Z,16.10
2022-09-03T08:52:41.900Z,16.20
2022-09-03T08:55:20.615Z,16.60
2022-09-03T08:57:54.820Z,17.10
2022-09-03T09:00:23.729Z,17.30
2022-09-03T09:03:33.452Z,17.60
2022-09-03T09:06:13.750Z,17.90
2022-09-03T09:08:56.130Z,17.90
2022-09-03T09:11:37.906Z,17.90
2022-09-03T09:14:14.001Z,18.00
2022-09-03T09:16:58.353Z,18.10
2022-09-03T09:19:41.085Z,18.20
2022-09-03T09:22:14.249Z,18.40
2022-09-03T09:24:46.273Z,18.40
2022-09-03T09:27:17.553Z,18.60
2022-09-03T09:29:51.796Z,18.90
2022-09-03T09:32:21.980Z,19.40
2022-09-03T09:34:52.485Z,20.10
2022-09-03T09:37:22.501Z,21.30
2022-09-03T09:39:59.661Z,21.80
2022-09-03T09:42:31.079Z,21.70
2022-09-03T09:45:10.196Z,21.60
2022-09-03T09:47:42.580Z,21.80
2022-09-03T09:50:24.920Z,22.00
2022-09-03T09:53:08.527Z,22.90
2022-09-03T09:55:49.406Z,23.90
2022-09-03T09:58:23.990Z,24.10
2022-09-03T10:01:16.429Z,24.70
2022-09-03T10:03:53.086Z,25.00
2022-09-03T10:06:42.709Z,25.90
2022-09-03T10:09:15.959Z,26.30
2022-09-03T10:11:48.314Z,25.20
2022-09-03T10:14:24.590Z,26.30
2022-09-03T10:17:02.802Z,26.40
2022-09-03T10:19:40.452Z,26.00
2022-09-03T10:22:13.406Z,24.90
2022-09-03T10:24:54.312Z,23.60
2022-09-03T10:27:24.156Z,22.70
2022-09-03T10:29:53.524Z,22.60
2022-09-03T10:32:39.832Z,22.10
2022-09-03T10:35:20.545Z,21.70
2022-09-03T10:37:56.754Z,21.50
2022-09-03T10:40:36.380Z,21.40
2022-09-03T10:43:23.466Z,21.00
2022-09-03T10:46:06.366Z,21.20
2022-09-03T10:48:50.168Z,21.30
2022-09-03T10:51:21.749Z,21.50
2022-09-03T10:54:23.660Z,21.80
2022-09-03T10:57:03.725Z,21.90
2022-09-03T10:59:51.593Z,22.10
2022-09-03T11:02:36.100Z,22.50
2022-09-03T11:05:09.223Z,22.80
2022-09-03T11:07:41.594Z,22.70
2022-09-03T11:10:18.436Z,22.60
2022-09-03T11:12:57.192Z,22.90
2022-09-03T11:15:30.102Z,23.20
2022-09-03T11:18:04.075Z,23.20
2022-09-03T11:20:33.935Z,23.40
2022-09-03T11:23:08.340Z,23.80
2022-09-03T11:25:45.021Z,24.10
2022-09-03T11:28:34.229Z,24.70
2022-09-03T11:31:18.586Z,24.90
2022-09-03T11:33:53.358Z,24.20
2022-09-03T11:36:33.006Z,24.40
2022-09-03T11:39:02.314Z,24.90
2022-09-03T11:41:36.901Z,25.30
2022-09-03T11:44:19.538Z,25.50
2022-09-03T11:47:03.198Z,25.40
2022-09-03T11:49:46.934Z,25.30
2022-09-03T11:52:26.544Z,25.30
2022-09-03T11:54:55.140Z,24.80
2022-09-03T11:57:29.349Z,24.50
2022-09-03T12:00:11.676Z,24.50
2022-09-03T12:02:46.590Z,24.60
2022-09-03T12:05:25.648Z,24.70
2022-09-03T12:08:32.879Z,24.30
2022-09-03T12:11:14.048Z,24.30
2022-09-03T12:13:57.714Z,24.10
2022-09-03T12:16:42.835Z,24.00
2022-09-03T12:19:22.777Z,23.70
2022-09-03T12:21:50.906Z,23.80
2022-09-03T12:24:20.304Z,23.70
2022-09-03T12:26:53.483Z,23.90
2022-09-03T12:29:28.238Z,23.80
2022-09-03T12:32:10.120Z,23.80
2022-09-03T12:34:38.441Z,24.00
2022-09-03T12:40:21.779Z,24.00
2022-09-03T12:42:50.786Z,24.10
2022-09-03T12:45:23.016Z,24.40
2022-09-03T12:47:53.335Z,24.70
2022-09-03T12:50:24.883Z,25.00
2022-09-03T12:52:56.379Z,24.80
2022-09-03T12:55:34.087Z,24.40
2022-09-03T12:58:13.437Z,24.50
2022-09-03T13:00:48.710Z,25.10
2022-09-03T13:03:23.036Z,25.30
2022-09-03T13:05:56.558Z,25.20
2022-09-03T13:08:27.390Z,25.20
2022-09-03T13:10:58.049Z,25.20
2022-09-03T13:13:27.898Z,25.30
2022-09-03T13:16:24.882Z,25.20
2022-09-03T13:19:03.277Z,24.90
2022-09-03T13:21:44.018Z,25.00
2022-09-03T13:24:30.036Z,25.20
2022-09-03T13:27:08.365Z,25.20
2022-09-03T13:29:49.354Z,25.30
2022-09-03T13:32:30.591Z,25.50
2022-09-03T13:35:10.336Z,24.90
2022-09-03T13:37:42.535Z,25.10
2022-09-03T13:40:20.643Z,25.20
2022-09-03T13:43:05.121Z,25.20
2022-09-03T13:45:39.908Z,25.10
2022-09-03T13:48:34.852Z,25.20
2022-09-03T13:51:12.722Z,24.90
2022-09-03T13:53:59.000Z,24.40
2022-09-03T13:56:36.554Z,24.10
2022-09-03T13:59:09.737Z,23.90
2022-09-03T14:01:54.868Z,23.50
2022-09-03T14:04:29.363Z,23.40
2022-09-03T14:07:02.949Z,23.30
2022-09-03T14:09:40.397Z,23.10
2022-09-03T14:12:18.316Z,23.00
2022-09-03T14:14:55.071Z,22.90
2022-09-03T14:17:33.666Z,22.90
2022-09-03T14:20:05.786Z,22.60
2022-09-03T14:22:46.868Z,22.60
2022-09-03T14:25:19.091Z,22.50
2022-09-03T14:27:50.179Z,22.30
2022-09-03T14:30:37.196Z,22.20
2022-09-03T14:33:14.666Z,22.10
2022-09-03T14:36:04.227Z,22.00
2022-09-03T14:39:11.214Z,21.90
2022-09-03T14:42:12.004Z,21.80
2022-09-03T14:45:14.277Z,21.60
2022-09-03T14:47:52.337Z,21.40
2022-09-03T14:50:33.238Z,21.20
2022-09-03T14:53:43.529Z,21.10
2022-09-03T14:56:24.448Z,20.90
2022-09-03T14:59:26.432Z,20.90
2022-09-03T15:02:18.404Z,20.80
2022-09-03T15:05:09.646Z,20.60
2022-09-03T15:07:47.143Z,20.50
2022-09-03T15:10:23.137Z,20.40
2022-09-03T15:12:54.458Z,20.20
2022-09-03T15:15:29.355Z,20.10
2022-09-03T15:18:09.300Z,19.90
2022-09-03T15:20:49.772Z,19.70
2022-09-03T15:23:25.861Z,19.50
2022-09-03T15:26:35.653Z,19.30
2022-09-03T15:29:31.072Z,19.20
2022-09-03T15:32:09.530Z,19.10
2022-09-03T15:34:56.503Z,18.90
2022-09-03T15:37:29.353Z,18.80
2022-09-03T15:40:06.607Z,18.50
2022-09-03T15:42:37.856Z,18.40
2022-09-03T15:45:17.754Z,18.20
2022-09-03T15:47:54.379Z,17.90
2022-09-03T15:50:36.895Z,17.80
2022-09-03T15:53:16.483Z,17.70
2022-09-03T15:55:45.587Z,17.70
2022-09-03T15:58:27.008Z,17.60
2022-09-03T16:01:02.642Z,17.40
2022-09-03T16:03:47.116Z,17.30
2022-09-03T16:06:29.959Z,17.10
2022-09-03T16:09:04.348Z,17.10
2022-09-03T16:11:40.013Z,17.10
2022-09-03T16:14:17.345Z,17.30
2022-09-03T16:16:58.828Z,17.30
2022-09-03T16:19:33.233Z,17.40
2022-09-03T16:22:07.794Z,17.50
2022-09-03T16:24:46.958Z,17.40
2022-09-03T16:27:21.137Z,17.40
2022-09-03T16:30:02.316Z,17.50
2022-09-03T16:32:58.460Z,17.60
2022-09-03T16:35:41.337Z,17.70
2022-09-03T16:38:25.200Z,17.50
2022-09-03T16:41:02.608Z,17.60
2022-09-03T16:43:41.130Z,17.60
2022-09-03T16:46:27.222Z,17.60
2022-09-03T16:49:11.791Z,17.70
2022-09-03T16:51:46.136Z,17.60
2022-09-03T16:54:32.304Z,17.50
2022-09-03T16:57:08.785Z,17.40
2022-09-03T17:00:09.562Z,17.20
2022-09-03T17:03:03.956Z,17.10
2022-09-03T17:06:13.575Z,17.10
2022-09-03T17:08:51.661Z,17.30
2022-09-03T17:11:43.951Z,17.30
2022-09-03T17:14:47.272Z,17.40
2022-09-03T17:17:27.846Z,17.30
2022-09-03T17:20:07.755Z,17.20
2022-09-03T17:22:46.150Z,17.10
2022-09-03T17:25:26.256Z,17.00
2022-09-03T17:28:07.570Z,17.00
2022-09-03T17:30:45.654Z,16.90
2022-09-03T17:33:40.115Z,16.90
2022-09-03T17:36:14.177Z,16.80
2022-09-03T17:39:19.102Z,16.80
2022-09-03T17:41:53.844Z,16.70
2022-09-03T17:44:39.718Z,16.50
2022-09-03T17:47:35.388Z,16.40
2022-09-03T17:50:14.640Z,16.40
2022-09-03T17:52:46.578Z,16.20
2022-09-03T17:55:22.348Z,16.00
2022-09-03T17:57:58.358Z,15.90
2022-09-03T18:00:37.830Z,15.70
2022-09-03T18:03:13.006Z,15.50
2022-09-03T18:05:48.169Z,15.40
2022-09-03T18:08:21.735Z,15.30
2022-09-03T18:11:00.669Z,15.30
2022-09-03T18:13:44.740Z,15.20
2022-09-03T18:16:20.380Z,15.10
2022-09-03T18:18:51.947Z,15.00
2022-09-03T18:21:40.601Z,15.00
2022-09-03T18:24:44.098Z,14.90
2022-09-03T18:27:33.623Z,14.90
2022-09-03T18:30:22.704Z,14.80
2022-09-03T18:33:09.686Z,14.80
2022-09-03T18:35:58.370Z,14.70
2022-09-03T18:38:45.633Z,14.70
2022-09-03T18:41:49.139Z,14.60
2022-09-03T18:44:45.670Z,14.60
2022-09-03T18:48:02.235Z,14.60
2022-09-03T18:51:00.277Z,14.50
2022-09-03T18:53:56.739Z,14.50
2022-09-03T18:56:51.818Z,14.40
2022-09-03T18:59:58.620Z,14.40
2022-09-03T19:02:52.398Z,14.40
2022-09-03T19:05:44.330Z,14.30
2022-09-03T19:08:38.462Z,14.20
2022-09-03T19:11:31.813Z,14.20
2022-09-03T19:14:23.340Z,14.20
2022-09-03T19:17:20.076Z,14.10
2022-09-03T19:20:21.028Z,14.10
2022-09-03T19:23:06.939Z,14.00
2022-09-03T19:25:55.090Z,14.00
2022-09-03T19:28:42.466Z,13.90
2022-09-03T19:31:46.015Z,13.90
2022-09-03T19:35:01.117Z,13.90
2022-09-03T19:37:55.001Z,13.90
2022-09-03T19:41:11.020Z,13.90
2022-09-03T19:44:07.554Z,13.90
2022-09-03T19:46:59.196Z,13.90
2022-09-03T19:49:55.459Z,13.90
2022-09-03T19:52:48.667Z,13.90
2022-09-03T19:55:40.099Z,13.90
2022-09-03T19:58:42.582Z,13.90
2022-09-03T20:01:30.004Z,13.90
2022-09-03T20:04:19.051Z,13.90
2022-09-03T20:07:08.595Z,13.90
2022-09-03T20:09:59.371Z,13.90
2022-09-03T20:12:30.993Z,13.90
2022-09-03T20:15:00.482Z,13.90
2022-09-03T20:17:36.324Z,13.80
2022-09-03T20:20:18.161Z,13.80
2022-09-03T20:22:59.123Z,13.80
2022-09-03T20:25:49.939Z,13.80
2022-09-03T20:28:34.464Z,13.70
2022-09-03T20:31:12.040Z,13.70
2022-09-03T20:33:54.571Z,13.70
2022-09-03T20:36:31.740Z,13.60
2022-09-03T20:39:27.328Z,13.60
2022-09-03T20:42:06.124Z,13.60
2022-09-03T20:44:55.311Z,13.50
2022-09-03T20:48:00.271Z,13.50
2022-09-03T20:50:46.873Z,13.50
2022-09-03T20:53:33.898Z,13.50
2022-09-03T20:56:10.600Z,13.40
2022-09-03T20:58:45.854Z,13.40
2022-09-03T21:01:22.745Z,13.40
2022-09-03T21:04:04.859Z,13.30
2022-09-03T21:06:39.285Z,13.30
2022-09-03T21:09:23.846Z,13.30
2022-09-03T21:12:01.046Z,13.30
2022-09-03T21:14:38.845Z,13.20
2022-09-03T21:17:25.510Z,13.20
2022-09-03T21:20:09.692Z,13.20
2022-09-03T21:22:52.745Z,13.20
2022-09-03T21:25:27.517Z,13.20
2022-09-03T21:28:03.563Z,13.10
2022-09-03T21:30:36.453Z,13.10
2022-09-03T21:33:10.379Z,13.10
2022-09-03T21:35:46.983Z,13.10
2022-09-03T21:38:22.541Z,13.10
2022-09-03T21:40:58.657Z,13.20
2022-09-03T21:43:33.491Z,13.10
2022-09-03T21:46:07.498Z,13.10
2022-09-03T21:48:42.555Z,13.10
2022-09-03T21:51:18.375Z,13.10
2022-09-03T21:53:52.126Z,13.10
2022-09-03T21:56:45.121Z,13.10
2022-09-03T21:59:29.260Z,13.10
2022-09-03T22:02:07.793Z,13.20
2022-09-03T22:04:36.247Z,13.20
2022-09-03T22:07:19.264Z,13.20
2022-09-03T22:09:54.239Z,13.30
2022-09-03T22:12:28.909Z,13.30
2022-09-03T22:14:59.560Z,13.30
2022-09-03T22:17:37.479Z,13.30
2022-09-03T22:20:06.375Z,13.30
2022-09-03T22:22:44.466Z,13.40
2022-09-03T22:25:17.083Z,13.40
2022-09-03T22:28:01.083Z,13.40
2022-09-03T22:30:35.691Z,13.40
2022-09-03T22:33:11.058Z,13.50
2022-09-03T22:35:53.134Z,13.40
2022-09-03T22:38:35.809Z,13.40
2022-09-03T22:41:13.709Z,13.30
2022-09-03T22:43:44.007Z,13.30
2022-09-03T22:46:23.159Z,13.20
2022-09-03T22:49:07.158Z,13.20
2022-09-03T22:51:46.095Z,13.10
2022-09-03T22:54:27.885Z,13.10
2022-09-03T22:56:59.182Z,13.10
2022-09-03T22:59:34.481Z,13.00
2022-09-03T23:02:11.565Z,13.00
2022-09-03T23:04:47.806Z,13.00
2022-09-03T23:07:23.370Z,12.90
2022-09-03T23:09:58.786Z,12.90
2022-09-03T23:12:34.481Z,12.80
2022-09-03T23:15:06.737Z,12.70
2022-09-03T23:17:41.618Z,12.80
2022-09-03T23:20:15.431Z,12.70
2022-09-03T23:22:54.560Z,12.70
2022-09-03T23:25:26.766Z,12.70
2022-09-03T23:28:01.570Z,12.60
2022-09-03T23:30:30.401Z,12.60
2022-09-03T23:33:00.334Z,12.60
2022-09-03T23:35:30.092Z,12.50
2022-09-03T23:38:15.697Z,12.60
2022-09-03T23:40:50.739Z,12.50
2022-09-03T23:43:48.142Z,12.50
2022-09-03T23:46:20.862Z,12.50
2022-09-03T23:49:13.986Z,12.50
2022-09-03T23:51:55.462Z,12.40
2022-09-03T23:54:30.933Z,12.40
2022-09-03T23:57:08.203Z,12.40
2022-09-03T23:59:56.894Z,12.40
